Time;durP1;ratioP1;P1;durP2;ratioP2;P2;SDS_P1;SDS_P2;PMS_P1;PMS_P2;Temp;Humidity;BMP_temperature;BMP_pressure;BME280_temperature;BME280_humidity;BME280_pressure;Samples;Min_cycle;Max_cycle;Signal;HPM_P1;HPM_P2
2023/04/30 00:01:04;;;;;;;12.60;8.60;;;;;;;-141.97;58.27;47555.59;5051804;28;20215;-80
2023/04/30 00:03:30;;;;;;;15.83;9.20;;;;;;;-141.97;57.76;47519.06;5051789;28;20181;-81
2023/04/30 00:05:56;;;;;;;14.47;8.70;;;;;;;-141.97;57.94;47728.59;5032611;28;20272;-79
2023/04/30 00:08:21;;;;;;;16.23;9.30;;;;;;;-141.97;58.44;47553.69;5052422;28;20242;-79
2023/04/30 00:10:47;;;;;;;13.03;9.17;;;;;;;-141.97;57.89;47590.19;5053541;28;20162;-80
2023/04/30 00:13:12;;;;;;;11.70;9.03;;;;;;;-141.97;57.30;47653.63;5056114;28;20173;-80
2023/04/30 00:15:39;;;;;;;13.10;8.83;;;;;;;-141.97;57.27;47594.03;5036335;28;20177;-79
2023/04/30 00:18:05;;;;;;;14.97;9.30;;;;;;;-141.97;58.53;47565.22;5056925;28;20604;-80
2023/04/30 00:20:32;;;;;;;12.63;9.13;;;;;;;-141.97;58.77;47586.34;5056180;28;20283;-80
2023/04/30 00:22:58;;;;;;;12.83;8.77;;;;;;;-141.97;58.53;47599.81;5056637;28;20157;-79
2023/04/30 00:25:23;;;;;;;13.10;9.80;;;;;;;-141.97;58.43;47549.84;5055662;28;20227;-80
2023/04/30 00:27:49;;;;;;;13.43;9.43;;;;;;;-141.97;58.25;47546.00;5055649;28;20244;-80
2023/04/30 00:30:15;;;;;;;15.00;9.87;;;;;;;-141.97;58.13;47699.75;5039088;28;20165;-79
2023/04/30 00:32:40;;;;;;;15.47;9.60;;;;;;;-141.97;58.33;47580.59;5055927;28;20242;-79
2023/04/30 00:35:06;;;;;;;14.03;9.23;;;;;;;-141.97;59.90;47553.69;5055593;28;20170;-80
2023/04/30 00:37:31;;;;;;;14.43;9.27;;;;;;;-141.97;59.81;47594.03;5056086;28;20233;-80
2023/04/30 00:39:56;;;;;;;17.40;10.07;;;;;;;-141.97;59.77;47561.38;5055667;28;20166;-79
2023/04/30 00:42:23;;;;;;;19.37;9.77;;;;;;;-141.97;59.96;47586.34;5056047;28;20200;-79
2023/04/30 00:44:48;;;;;;;14.07;9.50;;;;;;;-141.97;59.69;47590.19;5068560;28;20177;-79
2023/04/30 00:47:14;;;;;;;13.43;9.07;;;;;;;-141.97;59.74;47561.38;5068927;28;20204;-80
2023/04/30 00:49:39;;;;;;;13.53;9.70;;;;;;;-141.97;61.83;47592.13;5036121;28;20169;-79
2023/04/30 00:52:06;;;;;;;15.13;9.20;;;;;;;-141.97;62.44;47521.00;5035811;28;20206;-80
2023/04/30 00:54:31;;;;;;;16.13;9.67;;;;;;;-141.97;61.26;47561.38;5053443;28;20526;-80
2023/04/30 00:56:57;;;;;;;14.97;9.90;;;;;;;-141.97;62.23;47553.69;5053157;28;20165;-80
2023/04/30 00:59:23;;;;;;;14.70;9.40;;;;;;;-141.97;63.91;47549.84;5052871;28;20219;-80
2023/04/30 01:01:48;;;;;;;13.77;9.40;;;;;;;-141.97;63.67;47532.53;5054309;28;20169;-80
2023/04/30 01:04:15;;;;;;;16.13;10.57;;;;;;;-141.97;64.97;47572.91;5053253;28;20161;-80
2023/04/30 01:06:41;;;;;;;16.13;9.57;;;;;;;-141.97;65.19;47551.75;5052919;28;20269;-80
2023/04/30 01:09:09;;;;;;;15.43;9.87;;;;;;;-141.97;65.09;47478.72;5053182;28;20235;-79
2023/04/30 01:11:53;;;;;;;15.73;10.20;;;;;;;-141.97;65.24;47576.75;5054357;28;20185;-80
2023/04/30 01:14:28;;;;;;;15.60;9.70;;;;;;;-141.97;65.66;47592.13;5054567;28;20161;-80
2023/04/30 01:17:08;;;;;;;13.73;10.03;;;;;;;-141.97;65.38;47565.22;5053525;28;20208;-80
2023/04/30 01:19:44;;;;;;;13.33;9.40;;;;;;;-141.97;65.35;47580.59;5052429;28;20180;-80
2023/04/30 01:22:27;;;;;;;15.97;9.97;;;;;;;-141.97;64.57;47699.75;5053553;28;20161;-79
2023/04/30 01:25:11;;;;;;;19.20;10.23;;;;;;;-141.97;64.02;47588.28;5054121;28;20173;-80
2023/04/30 01:27:51;;;;;;;14.90;10.63;;;;;;;-141.97;66.22;47584.44;5053258;28;20199;-82
2023/04/30 01:30:18;;;;;;;17.13;10.77;;;;;;;-141.97;67.70;47595.97;5053696;28;20162;-82
2023/04/30 01:32:43;;;;;;;18.47;11.43;;;;;;;-141.97;68.74;47694.00;5054187;28;20157;-81
2023/04/30 01:35:09;;;;;;;16.67;11.00;;;;;;;-141.97;68.22;47590.19;5054275;28;20165;-81
2023/04/30 01:37:41;;;;;;;18.60;10.53;;;;;;;-141.97;68.20;47588.28;5053162;28;20232;-81
2023/04/30 01:40:23;;;;;;;18.40;10.80;;;;;;;-141.97;68.21;47595.97;5036043;28;20165;-81
2023/04/30 01:43:08;;;;;;;14.33;10.10;;;;;;;-141.97;67.78;47595.97;5053993;28;20161;-81
2023/04/30 01:45:52;;;;;;;18.07;10.47;;;;;;;-141.97;67.41;47549.84;5066641;28;20168;-81
2023/04/30 01:48:45;;;;;;;18.03;11.00;;;;;;;-141.97;68.74;47569.06;5069716;28;20184;-81
2023/04/30 01:51:21;;;;;;;16.27;9.50;;;;;;;-141.97;67.98;47569.06;5067771;28;20193;-81
2023/04/30 01:53:47;;;;;;;15.17;10.13;;;;;;;-141.97;67.88;47595.97;5054097;28;20472;-80
2023/04/30 01:56:31;;;;;;;16.47;10.70;;;;;;;-141.97;68.59;47615.19;5035551;28;20699;-81
2023/04/30 01:58:58;;;;;;;15.93;10.00;;;;;;;-141.97;67.90;47595.97;5052593;28;20193;-81
2023/04/30 02:01:31;;;;;;;16.57;10.60;;;;;;;-141.97;68.33;47580.59;5052275;28;20165;-81
2023/04/30 02:03:57;;;;;;;16.73;10.10;;;;;;;-141.97;68.02;47592.13;5051920;28;20180;-81
2023/04/30 02:06:28;;;;;;;15.67;10.03;;;;;;;-141.97;68.07;47599.81;5051946;28;20610;-82
2023/04/30 02:08:54;;;;;;;16.10;10.60;;;;;;;-141.97;68.02;47605.56;5051990;28;20161;-82
2023/04/30 02:11:20;;;;;;;16.23;10.63;;;;;;;-141.97;67.62;47615.19;5051775;28;20244;-81
2023/04/30 02:13:45;;;;;;;22.17;13.33;;;;;;;-141.97;68.05;47695.91;5033897;28;20224;-82
2023/04/30 02:16:11;;;;;;;23.57;14.20;;;;;;;-141.97;67.68;47569.06;5051969;28;20162;-81
2023/04/30 02:18:36;;;;;;;20.17;13.23;;;;;;;-141.97;67.96;47561.38;5051852;28;20165;-81
2023/04/30 02:21:02;;;;;;;18.93;13.07;;;;;;;-141.97;67.71;47692.06;5051353;28;20192;-81
2023/04/30 02:23:27;;;;;;;24.03;13.50;;;;;;;-141.97;67.49;47546.00;5051586;28;20218;-81
2023/04/30 02:25:52;;;;;;;23.83;13.47;;;;;;;-141.97;67.29;47699.75;5051422;28;20205;-81
2023/04/30 02:28:18;;;;;;;21.87;14.50;;;;;;;-141.97;66.82;47511.38;5051544;28;20615;-81
2023/04/30 02:30:43;;;;;;;38.87;22.80;;;;;;;-141.97;67.00;47592.13;5051392;28;20307;-81
2023/04/30 02:33:11;;;;;;;25.50;17.33;;;;;;;-141.97;67.21;47745.88;5051336;28;20203;-81
2023/04/30 02:35:37;;;;;;;21.00;13.60;;;;;;;-141.97;67.35;47578.66;5033184;28;20181;-81
2023/04/30 02:38:02;;;;;;;21.17;12.80;;;;;;;-141.97;67.24;47530.59;5050621;28;20247;-81
2023/04/30 02:40:27;;;;;;;23.87;16.43;;;;;;;-141.97;66.19;47570.97;5050810;28;20654;-81
2023/04/30 02:42:55;;;;;;;23.40;15.93;;;;;;;-141.97;66.38;47553.69;5050444;28;20653;-81
2023/04/30 02:45:20;;;;;;;20.20;12.40;;;;;;;-141.97;67.68;47622.88;5050242;28;20299;-81
2023/04/30 02:47:46;;;;;;;18.77;12.40;;;;;;;-141.97;68.25;47561.38;5050308;28;20193;-81
2023/04/30 02:50:11;;;;;;;20.27;11.63;;;;;;;-141.97;68.13;47551.75;5050410;28;20550;-81
2023/04/30 02:52:37;;;;;;;19.47;12.27;;;;;;;-141.97;68.34;47515.22;5033545;28;20243;-81
2023/04/30 02:55:03;;;;;;;20.10;11.93;;;;;;;-141.97;68.18;47572.91;5051766;28;20188;-81
2023/04/30 02:57:28;;;;;;;16.50;12.37;;;;;;;-141.97;69.25;47611.34;5050556;28;20570;-81
2023/04/30 02:59:53;;;;;;;21.03;12.77;;;;;;;-141.97;69.13;47526.75;5050669;28;20188;-81
2023/04/30 03:02:22;;;;;;;17.37;12.00;;;;;;;-141.97;69.08;47595.97;5051058;28;20249;-81
2023/04/30 03:04:48;;;;;;;20.70;12.40;;;;;;;-141.97;69.97;47563.28;5051097;28;20157;-81
2023/04/30 03:07:13;;;;;;;20.60;12.10;;;;;;;-141.97;69.99;47580.59;5032639;28;20201;-81
2023/04/30 03:09:39;;;;;;;21.27;11.93;;;;;;;-141.97;69.08;47584.44;5050620;28;20243;-81
2023/04/30 03:12:04;;;;;;;16.57;11.70;;;;;;;-141.97;68.66;47588.28;5051031;28;20157;-81
2023/04/30 03:14:30;;;;;;;18.77;11.40;;;;;;;-141.97;68.11;47570.97;5050934;28;20261;-81
2023/04/30 03:16:55;;;;;;;24.83;14.23;;;;;;;-141.97;69.21;47611.34;5050098;28;20173;-81
2023/04/30 03:19:23;;;;;;;26.70;14.47;;;;;;;-141.97;70.38;47538.28;5050879;28;20165;-82
2023/04/30 03:21:50;;;;;;;23.83;14.27;;;;;;;-141.97;70.20;47613.25;5033346;28;20604;-80
2023/04/30 03:24:16;;;;;;;22.67;13.83;;;;;;;-141.97;70.67;47561.38;5050166;28;20696;-81
2023/04/30 03:26:41;;;;;;;21.67;13.80;;;;;;;-141.97;70.50;47576.75;5050058;28;20282;-81
2023/04/30 03:29:07;;;;;;;22.80;13.73;;;;;;;-141.97;70.44;47524.84;5050813;28;20653;-81
2023/04/30 03:31:32;;;;;;;24.13;15.57;;;;;;;-141.97;70.24;47569.06;5051820;28;20161;-80
2023/04/30 03:33:57;;;;;;;24.83;14.40;;;;;;;-141.97;69.13;47569.06;5052601;28;20251;-81
2023/04/30 03:36:23;;;;;;;26.53;15.57;;;;;;;-141.97;68.88;47582.50;5066562;28;20168;-78
2023/04/30 03:38:48;;;;;;;25.83;16.90;;;;;;;-141.97;68.24;47599.81;5015653;28;1312783;-80
2023/04/30 03:41:14;;;;;;;29.97;19.60;;;;;;;-141.97;68.39;47590.19;5051298;28;20661;-81
2023/04/30 03:43:39;;;;;;;26.47;16.97;;;;;;;-141.97;68.34;47549.84;5051331;28;20168;-81
2023/04/30 03:46:05;;;;;;;31.37;19.33;;;;;;;-141.97;68.65;47588.28;5034839;28;20193;-81
2023/04/30 03:48:30;;;;;;;45.17;27.10;;;;;;;-141.97;68.97;47570.97;5054729;28;20215;-81
2023/04/30 03:50:56;;;;;;;34.30;19.70;;;;;;;-141.97;68.85;47569.06;5054588;28;20624;-80
2023/04/30 03:53:21;;;;;;;26.97;16.27;;;;;;;-141.97;69.73;47584.44;5054959;28;20162;-81
2023/04/30 03:55:48;;;;;;;28.60;16.07;;;;;;;-141.97;70.70;47599.81;5054995;28;20166;-81
2023/04/30 03:58:14;;;;;;;23.30;15.10;;;;;;;-141.97;71.37;47499.84;5054470;28;20168;-81
2023/04/30 04:00:40;;;;;;;26.90;16.17;;;;;;;-141.97;72.85;47599.81;5037155;28;20208;-81
2023/04/30 04:03:06;;;;;;;26.50;15.37;;;;;;;-141.97;74.29;47570.97;5054784;28;20165;-81
2023/04/30 04:05:31;;;;;;;27.87;15.10;;;;;;;-141.97;74.85;47665.16;5055153;28;20169;-81
2023/04/30 04:07:57;;;;;;;27.07;15.77;;;;;;;-141.97;75.36;47574.81;5054612;28;20641;-81
2023/04/30 04:10:22;;;;;;;23.73;14.80;;;;;;;-141.97;74.63;47595.97;5054274;28;20243;-81
2023/04/30 04:12:47;;;;;;;30.23;15.07;;;;;;;-141.97;74.29;47595.97;5055160;28;20157;-81
2023/04/30 04:15:13;;;;;;;28.60;15.77;;;;;;;-141.97;74.40;47561.38;5053928;28;20591;-82
2023/04/30 04:17:38;;;;;;;25.30;15.43;;;;;;;-141.97;73.97;47569.06;5054583;28;20157;-82
2023/04/30 04:20:05;;;;;;;28.60;15.53;;;;;;;-141.97;73.41;47572.91;5054608;28;20161;-81
2023/04/30 04:22:30;;;;;;;24.17;14.30;;;;;;;-141.97;72.03;47582.50;5036951;28;20166;-82
2023/04/30 04:24:56;;;;;;;25.90;14.93;;;;;;;-141.97;71.60;47605.56;5054350;28;20165;-82
2023/04/30 04:27:22;;;;;;;25.03;13.93;;;;;;;-141.97;70.61;47590.19;5054562;28;20261;-80
2023/04/30 04:29:47;;;;;;;22.03;13.87;;;;;;;-141.97;69.95;47686.31;5054781;28;20192;-81
2023/04/30 04:32:13;;;;;;;22.40;13.90;;;;;;;-141.97;69.98;47588.28;5053815;28;20245;-81
2023/04/30 04:34:38;;;;;;;24.27;14.13;;;;;;;-141.97;69.83;47717.06;5053753;28;20160;-81
2023/04/30 04:37:04;;;;;;;19.80;12.83;;;;;;;-141.97;68.99;47615.19;5054165;28;20240;-81
2023/04/30 04:39:30;;;;;;;19.50;13.17;;;;;;;-141.97;67.48;47590.19;5053973;28;20676;-82
2023/04/30 04:41:57;;;;;;;21.10;13.30;;;;;;;-141.97;67.32;47615.19;5053503;28;20177;-81
2023/04/30 04:44:22;;;;;;;21.83;13.93;;;;;;;-141.97;67.97;47553.69;5053418;28;20303;-82
2023/04/30 04:46:48;;;;;;;21.83;13.83;;;;;;;-141.97;69.71;47695.91;5035478;28;20280;-82
2023/04/30 04:49:14;;;;;;;21.37;14.37;;;;;;;-141.97;68.93;47619.03;5053386;28;20165;-82
2023/04/30 04:51:40;;;;;;;23.77;13.73;;;;;;;-141.97;68.37;47546.00;5053055;28;20196;-81
2023/04/30 04:54:05;;;;;;;22.33;13.83;;;;;;;-141.97;68.67;47576.75;5053912;28;20272;-81
2023/04/30 04:56:31;;;;;;;24.17;13.70;;;;;;;-141.97;67.77;47569.06;5052612;28;20180;-82
2023/04/30 04:58:57;;;;;;;35.73;25.43;;;;;;;-141.97;67.15;47580.59;5052204;28;20248;-80
2023/04/30 05:01:23;;;;;;;26.57;18.23;;;;;;;-141.97;66.60;47584.44;5053539;28;20170;-79
2023/04/30 05:03:49;;;;;;;95.83;50.17;;;;;;;-141.97;67.29;47582.50;5035700;28;20168;-79
2023/04/30 05:06:15;;;;;;;34.30;19.73;;;;;;;-141.97;66.57;47574.81;5052900;28;20212;-80
2023/04/30 05:08:40;;;;;;;23.43;14.43;;;;;;;-141.97;62.97;47588.28;5035028;28;20197;-79
2023/04/30 05:11:06;;;;;;;22.80;14.67;;;;;;;-141.97;62.26;47584.44;5053080;28;20639;-80
2023/04/30 05:13:31;;;;;;;22.33;13.27;;;;;;;-141.97;61.48;47572.91;5053200;28;20598;-80
2023/04/30 05:15:56;;;;;;;22.67;14.67;;;;;;;-141.97;60.47;47578.66;5052696;28;20157;-79
2023/04/30 05:18:22;;;;;;;27.93;17.57;;;;;;;-141.97;58.85;47582.50;5052627;28;20541;-79
2023/04/30 05:20:47;;;;;;;24.07;14.77;;;;;;;-141.97;59.83;47594.03;5052798;28;20169;-79
2023/04/30 05:23:13;;;;;;;23.30;15.30;;;;;;;-141.97;60.21;47609.41;5052547;28;20165;-79
2023/04/30 05:25:38;;;;;;;25.07;16.47;;;;;;;-141.97;57.09;47547.91;5052750;28;20172;-79
2023/04/30 05:28:05;;;;;;;20.10;13.20;;;;;;;-141.97;58.58;47509.47;5052512;28;20264;-77
2023/04/30 05:30:31;;;;;;;21.33;13.63;;;;;;;-141.97;59.20;47599.81;5052036;28;20160;-78
2023/04/30 05:32:57;;;;;;;18.90;12.50;;;;;;;-141.97;59.71;47580.59;5052306;28;20242;-78
2023/04/30 05:35:22;;;;;;;19.40;12.77;;;;;;;-141.97;59.56;47590.19;5052115;28;20245;-79
2023/04/30 05:37:48;;;;;;;28.53;17.83;;;;;;;-141.97;57.70;47584.44;5052236;28;20224;-78
2023/04/30 05:40:14;;;;;;;20.07;12.50;;;;;;;-141.97;55.65;47572.91;5052402;28;20197;-79
2023/04/30 05:42:42;;;;;;;24.20;15.73;;;;;;;-141.97;55.84;47563.28;5051895;28;20268;-79
2023/04/30 05:45:08;;;;;;;26.00;17.03;;;;;;;-141.97;56.03;47524.84;5051757;28;20170;-79
2023/04/30 05:47:33;;;;;;;19.50;12.63;;;;;;;-141.97;55.99;47619.03;5051898;28;20215;-80
2023/04/30 05:49:59;;;;;;;18.57;11.93;;;;;;;-141.97;54.48;47619.03;5052079;28;20161;-79
2023/04/30 05:52:24;;;;;;;18.10;11.87;;;;;;;-141.97;54.07;47609.41;5052343;28;20606;-79
2023/04/30 05:54:49;;;;;;;16.03;11.57;;;;;;;-141.97;53.28;47567.13;5051912;28;20240;-79
2023/04/30 05:57:15;;;;;;;15.40;11.10;;;;;;;-141.97;52.54;47584.44;5051998;28;20173;-80
2023/04/30 05:59:41;;;;;;;18.47;12.27;;;;;;;-141.97;54.66;47655.53;5033601;28;20252;-80
2023/04/30 06:02:07;;;;;;;17.77;11.27;;;;;;;-141.97;56.59;47572.91;5033563;28;20563;-79
2023/04/30 06:04:32;;;;;;;17.83;11.30;;;;;;;-141.97;57.94;47563.28;5052174;28;20598;-79
2023/04/30 06:06:58;;;;;;;18.07;11.50;;;;;;;-141.97;55.72;47572.91;5034059;28;20992;-79
2023/04/30 06:09:24;;;;;;;18.40;11.80;;;;;;;-141.97;54.74;47569.06;5051238;28;20161;-78
2023/04/30 06:11:50;;;;;;;16.53;11.53;;;;;;;-141.97;52.20;47661.31;5051660;28;20158;-79
2023/04/30 06:14:17;;;;;;;17.47;11.00;;;;;;;-141.97;50.81;47638.25;5051775;28;20173;-79
2023/04/30 06:16:43;;;;;;;16.47;11.13;;;;;;;-141.97;52.87;47588.28;5052383;28;20165;-79
2023/04/30 06:19:09;;;;;;;14.90;10.57;;;;;;;-141.97;52.25;47522.91;5052948;28;20172;-79
2023/04/30 06:21:35;;;;;;;18.30;11.00;;;;;;;-141.97;52.14;47663.22;5052197;28;20157;-80
2023/04/30 06:24:00;;;;;;;14.90;10.47;;;;;;;-141.97;51.91;47507.53;5053180;28;20165;-79
2023/04/30 06:26:26;;;;;;;14.20;9.83;;;;;;;-141.97;51.45;47551.75;5055722;28;20196;-77
2023/04/30 06:28:51;;;;;;;16.83;10.17;;;;;;;-141.97;52.62;47747.81;5074596;28;20165;-77
2023/04/30 06:31:17;;;;;;;13.53;9.23;;;;;;;-141.97;52.41;47424.91;5052397;28;20207;-78
2023/04/30 06:33:43;;;;;;;14.03;9.43;;;;;;;-141.97;52.42;47403.75;5051601;28;20181;-80
2023/04/30 06:36:08;;;;;;;15.70;10.80;;;;;;;-141.97;51.33;47713.22;5051667;28;20161;-79
2023/04/30 06:38:34;;;;;;;14.07;9.33;;;;;;;-141.97;52.83;47494.09;5033274;28;20238;-79
2023/04/30 06:40:59;;;;;;;13.43;10.10;;;;;;;-141.97;52.33;47415.28;5033316;28;20569;-80
2023/04/30 06:43:25;;;;;;;13.73;9.37;;;;;;;-141.97;51.39;47726.66;5052079;28;20551;-80
2023/04/30 06:45:50;;;;;;;13.83;8.47;;;;;;;-141.97;50.06;47413.38;5051336;28;20157;-78
2023/04/30 06:48:15;;;;;;;11.30;7.93;;;;;;;-141.97;49.31;47684.38;5051718;28;20625;-79
2023/04/30 06:50:44;;;;;;;11.37;7.93;;;;;;;-141.97;48.74;47519.06;5051662;28;20245;-80
2023/04/30 06:53:13;;;;;;;12.30;7.87;;;;;;;-141.97;49.71;47392.22;5051288;28;20153;-79
2023/04/30 06:55:40;;;;;;;11.43;8.10;;;;;;;-141.97;50.05;47549.84;5029912;28;20166;-79
2023/04/30 06:58:06;;;;;;;12.23;7.70;;;;;;;-141.97;48.99;47271.16;5031069;28;20157;-80
2023/04/30 07:00:32;;;;;;;9.60;7.57;;;;;;;-141.97;48.91;47597.88;5013163;28;20200;-80
2023/04/30 07:03:02;;;;;;;13.37;7.63;;;;;;;-141.97;47.57;47549.84;5031666;28;20253;-79
2023/04/30 07:05:31;;;;;;;10.60;7.87;;;;;;;-141.97;47.77;47730.50;5031338;28;20696;-78
2023/04/30 07:07:58;;;;;;;9.93;7.63;;;;;;;-141.97;46.88;47619.03;5030851;28;20292;-79
2023/04/30 07:10:23;;;;;;;11.27;8.07;;;;;;;-141.97;45.65;47515.22;5030928;28;20641;-80
2023/04/30 07:12:49;;;;;;;11.00;7.80;;;;;;;-141.97;45.40;47584.44;5013512;28;20165;-80
2023/04/30 07:15:14;;;;;;;10.77;8.00;;;;;;;-141.97;46.42;47342.25;5030844;28;20173;-80
2023/04/30 07:17:40;;;;;;;11.00;7.50;;;;;;;-141.97;47.02;47688.22;5031230;28;20154;-79
2023/04/30 07:20:07;;;;;;;12.73;7.93;;;;;;;-141.97;45.65;47549.84;5031460;28;20245;-79
2023/04/30 07:22:33;;;;;;;9.93;7.07;;;;;;;-141.97;44.87;47690.16;5036006;28;20253;-80
2023/04/30 07:24:59;;;;;;;9.97;7.27;;;;;;;-141.97;44.39;47399.91;5035724;28;20201;-79
2023/04/30 07:27:25;;;;;;;10.60;7.43;;;;;;;-141.97;44.82;47711.28;5033795;28;20192;-79
2023/04/30 07:29:54;;;;;;;9.47;7.70;;;;;;;-141.97;44.45;47590.19;5034258;28;20169;-80
2023/04/30 07:32:25;;;;;;;11.60;7.07;;;;;;;-141.97;42.63;47632.47;5035301;28;20161;-78
2023/04/30 07:34:52;;;;;;;11.20;6.97;;;;;;;-141.97;44.36;47584.44;5034610;28;20547;-79
2023/04/30 07:37:17;;;;;;;9.00;7.30;;;;;;;-141.97;43.35;47592.13;5034161;28;20291;-79
2023/04/30 07:39:47;;;;;;;8.10;6.80;;;;;;;-141.97;42.79;47657.47;5033690;28;20627;-79
2023/04/30 07:42:19;;;;;;;13.83;8.33;;;;;;;-141.97;42.58;47517.16;5034794;28;20196;-78
2023/04/30 07:44:45;;;;;;;9.53;7.50;;;;;;;-141.97;42.42;47559.44;5033248;28;20247;-77
2023/04/30 07:47:10;;;;;;;9.07;6.43;;;;;;;-141.97;41.56;47676.69;5018468;28;20206;-78
2023/04/30 07:49:36;;;;;;;8.37;6.50;;;;;;;-141.97;40.76;47519.06;5035470;28;20619;-79
2023/04/30 07:52:02;;;;;;;9.67;6.80;;;;;;;-141.97;41.21;47488.31;5016570;28;20196;-79
2023/04/30 07:54:30;;;;;;;9.90;7.10;;;;;;;-141.97;42.31;47369.16;5035082;28;20574;-79
2023/04/30 07:56:56;;;;;;;10.47;7.23;;;;;;;-141.97;43.62;47476.78;5034175;28;20231;-78
2023/04/30 07:59:23;;;;;;;9.93;7.13;;;;;;;-141.97;41.65;47301.91;5032555;28;21052;-78
2023/04/30 08:01:50;;;;;;;9.13;6.37;;;;;;;-141.97;40.06;47434.50;5033985;28;20237;-78
2023/04/30 08:04:16;;;;;;;10.43;6.40;;;;;;;-141.97;39.14;47622.88;5034158;28;20192;-78
2023/04/30 08:06:44;;;;;;;9.57;6.60;;;;;;;-141.97;39.71;47653.63;5033798;28;20194;-78
2023/04/30 08:09:11;;;;;;;9.77;5.90;;;;;;;-141.97;38.98;47680.53;5016059;28;20194;-78
2023/04/30 08:11:36;;;;;;;8.37;6.23;;;;;;;-141.97;38.68;47365.31;5032929;28;20197;-79
2023/04/30 08:14:05;;;;;;;10.23;7.40;;;;;;;-141.97;38.29;47484.47;5033854;28;20701;-79
2023/04/30 08:16:31;;;;;;;8.97;6.30;;;;;;;-141.97;37.95;47313.44;5033720;28;20158;-79
2023/04/30 08:18:59;;;;;;;10.07;6.53;;;;;;;-141.97;38.00;47465.25;5034165;28;20182;-77
2023/04/30 08:21:28;;;;;;;8.07;6.30;;;;;;;-141.97;37.77;47476.78;5034249;28;20170;-77
2023/04/30 08:23:54;;;;;;;9.60;5.80;;;;;;;-141.97;37.92;47622.88;5034340;28;20171;-78
2023/04/30 08:26:20;;;;;;;9.30;5.83;;;;;;;-141.97;37.05;47653.63;5034440;28;20201;-78
2023/04/30 08:28:54;;;;;;;7.07;5.70;;;;;;;-141.97;36.13;47592.13;5038991;28;20302;-78
2023/04/30 08:31:20;;;;;;;8.90;6.50;;;;;;;-141.97;36.55;47630.56;5054063;28;20157;-77
2023/04/30 08:33:50;;;;;;;10.60;7.40;;;;;;;-141.97;36.35;47592.13;5054423;28;20563;-78
2023/04/30 08:36:15;;;;;;;9.83;6.47;;;;;;;-141.97;36.64;47476.78;5036284;28;20184;-79
2023/04/30 08:38:41;;;;;;;8.53;6.50;;;;;;;-141.97;36.99;47559.44;5053908;28;20221;-79
2023/04/30 08:41:15;;;;;;;9.03;6.60;;;;;;;-141.97;37.98;47615.19;5054242;28;20169;-79
2023/04/30 08:43:41;;;;;;;8.97;6.10;;;;;;;-141.97;36.28;47551.75;5054058;28;20194;-79
2023/04/30 08:46:17;;;;;;;10.77;6.10;;;;;;;-141.97;37.12;47599.81;5053938;28;20196;-78
2023/04/30 08:48:43;;;;;;;10.43;6.23;;;;;;;-141.97;36.54;47501.78;5054159;28;20172;-79
2023/04/30 08:51:10;;;;;;;7.57;5.70;;;;;;;-141.97;34.39;47659.38;5036059;28;20704;-77
2023/04/30 08:53:39;;;;;;;5.67;4.67;;;;;;;-141.97;34.50;47369.16;5036407;28;20176;-78
2023/04/30 08:56:09;;;;;;;7.03;5.10;;;;;;;-141.97;34.26;47392.22;5053987;28;20162;-79
2023/04/30 08:58:34;;;;;;;6.27;5.00;;;;;;;-141.97;34.81;47599.81;5053434;28;20169;-79
2023/04/30 09:01:01;;;;;;;9.90;5.27;;;;;;;-141.97;34.06;47517.16;5035747;28;20189;-79
2023/04/30 09:03:27;;;;;;;7.30;5.33;;;;;;;-141.97;34.07;47642.09;5035704;28;20175;-78
2023/04/30 09:05:54;;;;;;;8.57;5.43;;;;;;;-141.97;33.81;47480.63;5035367;28;20252;-78
2023/04/30 09:08:40;;;;;;;7.10;5.53;;;;;;;-141.97;32.42;47480.63;5052600;28;20181;-79
2023/04/30 09:11:31;;;;;;;6.17;5.20;;;;;;;-141.97;33.37;47611.34;5051829;28;20219;-78
2023/04/30 09:13:58;;;;;;;6.37;4.63;;;;;;;-141.97;33.38;47588.28;5053084;28;20344;-79
2023/04/30 09:16:31;;;;;;;6.97;5.37;;;;;;;-141.97;32.89;47657.47;5054785;28;20705;-77
2023/04/30 09:19:02;;;;;;;8.27;4.90;;;;;;;-141.97;32.71;47284.59;5062522;28;20185;-77
2023/04/30 09:21:40;;;;;;;7.73;5.03;;;;;;;-141.97;33.05;47534.44;5071906;28;20169;-78
2023/04/30 09:24:17;;;;;;;7.17;4.73;;;;;;;-141.97;32.86;47611.34;5053119;28;20557;-79
2023/04/30 09:26:47;;;;;;;6.40;4.50;;;;;;;-141.97;32.88;47457.56;5036982;28;20197;-79
2023/04/30 09:29:18;;;;;;;6.00;4.63;;;;;;;-141.97;33.23;47257.69;5058226;28;20181;-78
2023/04/30 09:32:18;;;;;;;9.07;4.80;;;;;;;-141.97;33.35;47490.25;5060107;28;20223;-77
2023/04/30 09:35:03;;;;;;;6.93;4.53;;;;;;;-141.97;33.06;47619.03;5021286;28;20193;-79
2023/04/30 09:37:41;;;;;;;5.87;4.40;;;;;;;-141.97;32.60;47592.13;5039775;28;20225;-79
2023/04/30 09:40:16;;;;;;;7.23;5.03;;;;;;;-141.97;32.68;47311.50;5031601;28;20681;-78
2023/04/30 09:43:03;;;;;;;7.80;4.83;;;;;;;-141.97;31.27;47346.09;5033380;28;20177;-78
2023/04/30 09:45:51;;;;;;;7.40;4.87;;;;;;;-141.97;31.16;47484.47;5015404;28;20554;-78
2023/04/30 09:48:38;;;;;;;7.00;4.73;;;;;;;-141.97;30.43;47284.59;5033488;28;20163;-80
2023/04/30 09:51:13;;;;;;;8.00;5.20;;;;;;;-141.97;30.74;47459.50;5015188;28;20200;-78
2023/04/30 09:53:50;;;;;;;6.03;4.50;;;;;;;-141.97;30.76;47413.38;5016322;28;20539;-78
2023/04/30 09:56:27;;;;;;;6.60;4.87;;;;;;;-141.97;30.46;47496.00;5033086;28;20209;-79
2023/04/30 09:59:15;;;;;;;9.23;5.10;;;;;;;-141.97;31.10;47407.59;5032527;28;20623;-79
2023/04/30 10:02:01;;;;;;;7.40;5.13;;;;;;;-141.97;31.18;47396.06;5033433;28;20619;-77
2023/04/30 10:04:38;;;;;;;5.93;4.83;;;;;;;-141.97;31.32;47403.75;5032687;28;20165;-77
2023/04/30 10:07:26;;;;;;;6.03;4.40;;;;;;;-141.97;31.30;47332.66;5014837;28;20197;-76
2023/04/30 10:10:23;;;;;;;6.03;4.57;;;;;;;-141.97;31.28;47511.38;5014986;28;20189;-79
2023/04/30 10:13:34;;;;;;;7.33;5.17;;;;;;;-141.97;30.63;47680.53;5014837;28;20212;-77
2023/04/30 10:16:22;;;;;;;5.60;4.70;;;;;;;-141.97;30.25;47399.91;4994196;28;20190;-78
2023/04/30 10:19:08;;;;;;;6.55;5.28;;;;;;;-141.97;29.90;47363.41;5010468;28;20173;-79
2023/04/30 10:21:34;;;;;;;6.53;5.03;;;;;;;-141.97;30.47;47434.50;4993503;28;20221;-78
2023/04/30 10:24:10;;;;;;;6.60;4.93;;;;;;;-141.97;29.92;47196.19;5010702;28;20231;-78
2023/04/30 10:27:09;;;;;;;5.40;4.75;;;;;;;-141.97;29.99;47369.16;5012199;28;20218;-78
2023/04/30 10:29:33;;;;;;;7.38;4.63;;;;;;;-141.97;30.51;47480.63;5008887;28;20690;-77
2023/04/30 10:32:00;;;;;;;10.47;6.00;;;;;;;-141.97;30.72;47296.13;4993396;28;20182;-78
2023/04/30 10:35:07;;;;;;;11.37;7.27;;;;;;;-141.97;31.42;47511.38;5009752;28;20200;-78
2023/04/30 10:38:05;;;;;;;7.33;5.47;;;;;;;-141.97;31.34;47461.41;4931859;29;20217;-76
2023/04/30 10:41:17;;;;;;;7.63;4.97;;;;;;;-141.97;31.53;47430.66;4931700;29;20192;-78
2023/04/30 10:44:16;;;;;;;5.40;4.30;;;;;;;-141.97;32.05;47476.78;4878995;29;20190;-79
2023/04/30 10:47:04;;;;;;;7.33;5.70;;;;;;;-141.97;32.26;47447.97;4857169;29;20280;-79
2023/04/30 10:49:41;;;;;;;11.53;6.73;;;;;;;-141.97;33.12;47471.03;4857515;29;20275;-78
2023/04/30 10:52:48;;;;;;;12.47;7.40;;;;;;;-141.97;33.64;47484.47;4880314;29;20281;-77
2023/04/30 10:55:40;;;;;;;6.67;5.10;;;;;;;-141.97;33.87;47447.97;4895214;29;20225;-77
2023/04/30 10:58:50;;;;;;;;;;;;;;;;;;;;;
2023/04/30 11:01:33;;;;;;;7.23;4.80;;;;;;;-141.97;33.81;47478.72;4894368;29;20345;-77
2023/04/30 11:04:31;;;;;;;6.73;4.80;;;;;;;-141.97;33.10;47476.78;4895353;29;20183;-78
2023/04/30 11:07:09;;;;;;;6.37;5.07;;;;;;;-141.97;32.80;47334.56;4932366;29;20401;-77
2023/04/30 11:09:56;;;;;;;15.80;10.80;;;;;;;-141.97;32.28;47594.03;4932648;29;20673;-78
2023/04/30 11:12:30;;;;;;;8.13;5.80;;;;;;;-141.97;32.68;47607.50;4916153;29;20701;-78
2023/04/30 11:15:29;;;;;;;7.70;5.50;;;;;;;-141.97;32.21;47484.47;4970363;28;20273;-77
2023/04/30 11:18:39;;;;;;;6.10;4.67;;;;;;;-141.97;32.05;47499.84;5033260;28;20605;-79
2023/04/30 11:24:57;;;;;;;14.20;9.93;;;;;;;-141.97;32.24;47472.94;4990147;28;20195;-78
2023/04/30 11:28:08;;;;;;;19.53;11.17;;;;;;;-141.97;31.76;47426.81;4973789;28;20229;-77